sensor_id;sensor_type;location;lat;lon;timestamp;temperature;humidity
26107;DHT22;13866;50.748;12.630;2023-01-19T00:00:05;-4.10;99.90
26107;DHT22;13866;50.748;12.630;2023-01-19T00:02:31;-4.00;99.90
26107;DHT22;13866;50.748;12.630;2023-01-19T00:04:56;-4.00;99.90
26107;DHT22;13866;50.748;12.630;2023-01-19T00:07:23;-3.90;99.90
26107;DHT22;13866;50.748;12.630;2023-01-19T00:09:49;-3.90;99.90
26107;DHT22;13866;50.748;12.630;2023-01-19T00:12:14;-3.80;99.90
26107;DHT22;13866;50.748;12.630;2023-01-19T00:14:40;-3.90;99.90
26107;DHT22;13866;50.748;12.630;2023-01-19T00:17:05;-3.80;99.90
26107;DHT22;13866;50.748;12.630;2023-01-19T00:19:31;-3.90;99.90
26107;DHT22;13866;50.748;12.630;2023-01-19T00:21:56;-4.00;99.90
26107;DHT22;13866;50.748;12.630;2023-01-19T00:24:22;-4.00;99.90
26107;DHT22;13866;50.748;12.630;2023-01-19T00:26:47;-4.00;99.90
26107;DHT22;13866;50.748;12.630;2023-01-19T00:29:13;-3.90;99.90
26107;DHT22;13866;50.748;12.630;2023-01-19T00:31:40;-3.90;99.90
26107;DHT22;13866;50.748;12.630;2023-01-19T00:34:06;-4.00;99.90
26107;DHT22;13866;50.748;12.630;2023-01-19T00:36:32;-4.00;99.90
26107;DHT22;13866;50.748;12.630;2023-01-19T00:38:58;-4.00;99.90
26107;DHT22;13866;50.748;12.630;2023-01-19T00:41:24;-4.00;99.90
26107;DHT22;13866;50.748;12.630;2023-01-19T00:44:08;-3.90;99.90
26107;DHT22;13866;50.748;12.630;2023-01-19T00:46:33;-4.00;99.90
26107;DHT22;13866;50.748;12.630;2023-01-19T00:48:59;-4.00;99.90
26107;DHT22;13866;50.748;12.630;2023-01-19T00:51:24;-3.90;99.90
26107;DHT22;13866;50.748;12.630;2023-01-19T00:53:50;-3.90;99.90
26107;DHT22;13866;50.748;12.630;2023-01-19T00:56:16;-3.90;99.90
26107;DHT22;13866;50.748;12.630;2023-01-19T00:58:41;-4.00;99.90
26107;DHT22;13866;50.748;12.630;2023-01-19T01:01:07;-4.00;99.90
26107;DHT22;13866;50.748;12.630;2023-01-19T01:03:32;-4.10;99.90
26107;DHT22;13866;50.748;12.630;2023-01-19T01:05:58;-4.10;99.90
26107;DHT22;13866;50.748;12.630;2023-01-19T01:08:23;-4.20;99.90
26107;DHT22;13866;50.748;12.630;2023-01-19T01:10:49;-4.20;99.90
26107;DHT22;13866;50.748;12.630;2023-01-19T01:13:15;-4.20;99.90
26107;DHT22;13866;50.748;12.630;2023-01-19T01:15:41;-4.10;99.90
26107;DHT22;13866;50.748;12.630;2023-01-19T01:18:07;-4.10;99.90
26107;DHT22;13866;50.748;12.630;2023-01-19T01:20:32;-4.10;99.90
26107;DHT22;13866;50.748;12.630;2023-01-19T01:22:59;-4.10;99.90
26107;DHT22;13866;50.748;12.630;2023-01-19T01:25:26;-4.10;99.90
26107;DHT22;13866;50.748;12.630;2023-01-19T01:27:52;-4.10;99.90
26107;DHT22;13866;50.748;12.630;2023-01-19T01:30:19;-4.10;99.90
26107;DHT22;13866;50.748;12.630;2023-01-19T01:32:45;-4.10;99.90
26107;DHT22;13866;50.748;12.630;2023-01-19T01:35:11;-4.10;99.90
26107;DHT22;13866;50.748;12.630;2023-01-19T01:37:37;-4.10;99.90
26107;DHT22;13866;50.748;12.630;2023-01-19T01:40:04;-4.10;99.90
26107;DHT22;13866;50.748;12.630;2023-01-19T01:42:31;-4.10;99.90
26107;DHT22;13866;50.748;12.630;2023-01-19T01:44:59;-4.20;99.90
26107;DHT22;13866;50.748;12.630;2023-01-19T01:48:00;-4.20;99.90
26107;DHT22;13866;50.748;12.630;2023-01-19T01:50:25;-4.30;99.90
26107;DHT22;13866;50.748;12.630;2023-01-19T01:52:57;-4.30;99.90
26107;DHT22;13866;50.748;12.630;2023-01-19T01:55:26;-4.30;99.90
26107;DHT22;13866;50.748;12.630;2023-01-19T01:57:56;-4.40;99.90
26107;DHT22;13866;50.748;12.630;2023-01-19T02:00:25;-4.30;99.90
26107;DHT22;13866;50.748;12.630;2023-01-19T02:02:51;-4.40;99.90
26107;DHT22;13866;50.748;12.630;2023-01-19T02:05:34;-4.40;99.90
26107;DHT22;13866;50.748;12.630;2023-01-19T02:08:07;-4.30;99.90
26107;DHT22;13866;50.748;12.630;2023-01-19T02:10:53;-4.40;99.90
26107;DHT22;13866;50.748;12.630;2023-01-19T02:13:40;-4.30;99.90
26107;DHT22;13866;50.748;12.630;2023-01-19T02:16:08;-4.40;99.90
26107;DHT22;13866;50.748;12.630;2023-01-19T02:18:35;-4.40;99.90
26107;DHT22;13866;50.748;12.630;2023-01-19T02:21:19;-4.40;99.90
26107;DHT22;13866;50.748;12.630;2023-01-19T02:23:54;-4.40;99.90
26107;DHT22;13866;50.748;12.630;2023-01-19T02:26:26;-4.40;99.90
26107;DHT22;13866;50.748;12.630;2023-01-19T02:28:59;-4.30;99.90
26107;DHT22;13866;50.748;12.630;2023-01-19T02:31:25;-4.30;99.90
26107;DHT22;13866;50.748;12.630;2023-01-19T02:33:52;-4.30;99.90
26107;DHT22;13866;50.748;12.630;2023-01-19T02:36:21;-4.40;99.90
26107;DHT22;13866;50.748;12.630;2023-01-19T02:38:50;-4.40;99.90
26107;DHT22;13866;50.748;12.630;2023-01-19T02:41:19;-4.40;99.90
26107;DHT22;13866;50.748;12.630;2023-01-19T02:43:47;-4.40;99.90
26107;DHT22;13866;50.748;12.630;2023-01-19T02:46:13;-4.40;99.90
26107;DHT22;13866;50.748;12.630;2023-01-19T02:48:40;-4.40;99.90
26107;DHT22;13866;50.748;12.630;2023-01-19T02:51:22;-4.50;99.90
26107;DHT22;13866;50.748;12.630;2023-01-19T02:57:16;-4.50;99.90
26107;DHT22;13866;50.748;12.630;2023-01-19T03:05:42;-4.60;99.90
26107;DHT22;13866;50.748;12.630;2023-01-19T03:13:43;-4.50;99.90
26107;DHT22;13866;50.748;12.630;2023-01-19T03:19:08;-4.50;99.90
26107;DHT22;13866;50.748;12.630;2023-01-19T03:21:37;-4.50;99.90
26107;DHT22;13866;50.748;12.630;2023-01-19T03:24:05;-4.50;99.90
26107;DHT22;13866;50.748;12.630;2023-01-19T03:26:37;-4.50;99.90
26107;DHT22;13866;50.748;12.630;2023-01-19T03:29:05;-4.50;99.90
26107;DHT22;13866;50.748;12.630;2023-01-19T03:31:32;-4.60;99.90
26107;DHT22;13866;50.748;12.630;2023-01-19T03:34:02;-4.60;99.90
26107;DHT22;13866;50.748;12.630;2023-01-19T03:36:34;-4.60;99.90
26107;DHT22;13866;50.748;12.630;2023-01-19T03:39:01;-4.60;99.90
26107;DHT22;13866;50.748;12.630;2023-01-19T03:41:29;-4.60;99.90
26107;DHT22;13866;50.748;12.630;2023-01-19T03:43:56;-4.60;99.90
26107;DHT22;13866;50.748;12.630;2023-01-19T03:46:22;-4.50;99.90
26107;DHT22;13866;50.748;12.630;2023-01-19T03:48:49;-4.50;99.90
26107;DHT22;13866;50.748;12.630;2023-01-19T03:51:16;-4.50;99.90
26107;DHT22;13866;50.748;12.630;2023-01-19T03:53:42;-4.50;99.90
26107;DHT22;13866;50.748;12.630;2023-01-19T03:56:25;-4.50;99.90
26107;DHT22;13866;50.748;12.630;2023-01-19T03:58:50;-4.40;99.90
26107;DHT22;13866;50.748;12.630;2023-01-19T04:01:17;-4.40;99.90
26107;DHT22;13866;50.748;12.630;2023-01-19T04:03:44;-4.40;99.90
26107;DHT22;13866;50.748;12.630;2023-01-19T04:06:11;-4.40;99.90
26107;DHT22;13866;50.748;12.630;2023-01-19T04:08:37;-4.40;99.90
26107;DHT22;13866;50.748;12.630;2023-01-19T04:11:02;-4.40;99.90
26107;DHT22;13866;50.748;12.630;2023-01-19T04:13:28;-4.50;99.90
26107;DHT22;13866;50.748;12.630;2023-01-19T04:16:03;-4.40;99.90
26107;DHT22;13866;50.748;12.630;2023-01-19T04:18:30;-4.40;99.90
26107;DHT22;13866;50.748;12.630;2023-01-19T04:21:00;-4.40;99.90
26107;DHT22;13866;50.748;12.630;2023-01-19T04:23:26;-4.40;99.90
26107;DHT22;13866;50.748;12.630;2023-01-19T04:26:00;-4.40;99.90
26107;DHT22;13866;50.748;12.630;2023-01-19T04:28:26;-4.40;99.90
26107;DHT22;13866;50.748;12.630;2023-01-19T04:30:52;-4.40;99.90
26107;DHT22;13866;50.748;12.630;2023-01-19T04:33:19;-4.40;99.90
26107;DHT22;13866;50.748;12.630;2023-01-19T04:35:45;-4.30;99.90
26107;DHT22;13866;50.748;12.630;2023-01-19T04:38:11;-4.30;99.90
26107;DHT22;13866;50.748;12.630;2023-01-19T04:40:37;-4.20;99.90
26107;DHT22;13866;50.748;12.630;2023-01-19T04:43:02;-4.10;99.90
26107;DHT22;13866;50.748;12.630;2023-01-19T04:45:27;-4.10;99.90
26107;DHT22;13866;50.748;12.630;2023-01-19T04:47:53;-4.00;99.90
26107;DHT22;13866;50.748;12.630;2023-01-19T04:50:19;-4.10;99.90
26107;DHT22;13866;50.748;12.630;2023-01-19T04:52:44;-4.10;99.90
26107;DHT22;13866;50.748;12.630;2023-01-19T04:55:10;-4.10;99.90
26107;DHT22;13866;50.748;12.630;2023-01-19T04:57:35;-4.10;99.90
26107;DHT22;13866;50.748;12.630;2023-01-19T05:00:02;-4.10;99.90
26107;DHT22;13866;50.748;12.630;2023-01-19T05:02:28;-4.10;99.90
26107;DHT22;13866;50.748;12.630;2023-01-19T05:04:53;-4.10;99.90
26107;DHT22;13866;50.748;12.630;2023-01-19T05:07:19;-4.00;99.90
26107;DHT22;13866;50.748;12.630;2023-01-19T05:09:44;-4.00;99.90
26107;DHT22;13866;50.748;12.630;2023-01-19T05:12:10;-4.00;99.90
26107;DHT22;13866;50.748;12.630;2023-01-19T05:14:36;-3.90;99.90
26107;DHT22;13866;50.748;12.630;2023-01-19T05:17:02;-3.90;99.90
26107;DHT22;13866;50.748;12.630;2023-01-19T05:19:28;-3.90;99.90
26107;DHT22;13866;50.748;12.630;2023-01-19T05:21:53;-3.90;99.90
26107;DHT22;13866;50.748;12.630;2023-01-19T05:24:19;-3.90;99.90
26107;DHT22;13866;50.748;12.630;2023-01-19T05:26:45;-3.90;99.90
26107;DHT22;13866;50.748;12.630;2023-01-19T05:29:10;-4.00;99.90
26107;DHT22;13866;50.748;12.630;2023-01-19T05:31:36;-3.90;99.90
26107;DHT22;13866;50.748;12.630;2023-01-19T05:34:02;-4.00;99.90
26107;DHT22;13866;50.748;12.630;2023-01-19T05:36:27;-4.00;99.90
26107;DHT22;13866;50.748;12.630;2023-01-19T05:38:53;-3.90;99.90
26107;DHT22;13866;50.748;12.630;2023-01-19T05:41:18;-3.90;99.90
26107;DHT22;13866;50.748;12.630;2023-01-19T05:43:44;-3.90;99.90
26107;DHT22;13866;50.748;12.630;2023-01-19T05:46:10;-3.80;99.90
26107;DHT22;13866;50.748;12.630;2023-01-19T05:48:36;-3.80;99.90
26107;DHT22;13866;50.748;12.630;2023-01-19T05:51:03;-3.80;99.90
26107;DHT22;13866;50.748;12.630;2023-01-19T05:53:29;-3.90;99.90
26107;DHT22;13866;50.748;12.630;2023-01-19T05:56:02;-3.80;99.90
26107;DHT22;13866;50.748;12.630;2023-01-19T05:58:28;-3.80;99.90
26107;DHT22;13866;50.748;12.630;2023-01-19T06:00:54;-3.80;99.90
26107;DHT22;13866;50.748;12.630;2023-01-19T06:03:19;-3.80;99.90
26107;DHT22;13866;50.748;12.630;2023-01-19T06:05:45;-3.80;99.90
26107;DHT22;13866;50.748;12.630;2023-01-19T06:08:10;-3.90;99.90
26107;DHT22;13866;50.748;12.630;2023-01-19T06:10:35;-3.90;99.90
26107;DHT22;13866;50.748;12.630;2023-01-19T06:13:01;-3.90;99.90
26107;DHT22;13866;50.748;12.630;2023-01-19T06:15:27;-3.90;99.90
26107;DHT22;13866;50.748;12.630;2023-01-19T06:17:52;-3.90;99.90
26107;DHT22;13866;50.748;12.630;2023-01-19T06:20:18;-3.90;99.90
26107;DHT22;13866;50.748;12.630;2023-01-19T06:22:43;-4.00;99.90
26107;DHT22;13866;50.748;12.630;2023-01-19T06:25:09;-4.00;99.90
26107;DHT22;13866;50.748;12.630;2023-01-19T06:27:35;-4.00;99.90
26107;DHT22;13866;50.748;12.630;2023-01-19T06:30:01;-4.00;99.90
26107;DHT22;13866;50.748;12.630;2023-01-19T06:32:26;-4.00;99.90
26107;DHT22;13866;50.748;12.630;2023-01-19T06:34:52;-4.00;99.90
26107;DHT22;13866;50.748;12.630;2023-01-19T06:37:17;-4.00;99.90
26107;DHT22;13866;50.748;12.630;2023-01-19T06:39:43;-4.00;99.90
26107;DHT22;13866;50.748;12.630;2023-01-19T06:42:09;-4.00;99.90
26107;DHT22;13866;50.748;12.630;2023-01-19T06:44:35;-3.90;99.90
26107;DHT22;13866;50.748;12.630;2023-01-19T06:47:01;-3.90;99.90
26107;DHT22;13866;50.748;12.630;2023-01-19T06:49:27;-3.90;99.90
26107;DHT22;13866;50.748;12.630;2023-01-19T06:51:52;-3.90;99.90
26107;DHT22;13866;50.748;12.630;2023-01-19T06:54:18;-3.90;99.90
26107;DHT22;13866;50.748;12.630;2023-01-19T06:56:43;-3.90;99.90
26107;DHT22;13866;50.748;12.630;2023-01-19T06:59:08;-3.80;99.90
26107;DHT22;13866;50.748;12.630;2023-01-19T07:01:34;-3.80;99.90
26107;DHT22;13866;50.748;12.630;2023-01-19T07:04:00;-3.80;99.90
26107;DHT22;13866;50.748;12.630;2023-01-19T07:06:25;-3.90;99.90
26107;DHT22;13866;50.748;12.630;2023-01-19T07:08:51;-3.80;99.90
26107;DHT22;13866;50.748;12.630;2023-01-19T07:11:16;-3.80;99.90
26107;DHT22;13866;50.748;12.630;2023-01-19T07:13:42;-3.80;99.90
26107;DHT22;13866;50.748;12.630;2023-01-19T07:16:12;-3.80;99.90
26107;DHT22;13866;50.748;12.630;2023-01-19T07:18:39;-3.80;99.90
26107;DHT22;13866;50.748;12.630;2023-01-19T07:21:05;-3.70;99.90
26107;DHT22;13866;50.748;12.630;2023-01-19T07:23:31;-3.70;99.90
26107;DHT22;13866;50.748;12.630;2023-01-19T07:25:57;-3.70;99.90
26107;DHT22;13866;50.748;12.630;2023-01-19T07:28:23;-3.70;99.90
26107;DHT22;13866;50.748;12.630;2023-01-19T07:30:53;-3.70;99.90
26107;DHT22;13866;50.748;12.630;2023-01-19T07:33:20;-3.70;99.90
26107;DHT22;13866;50.748;12.630;2023-01-19T07:35:49;-3.70;99.90
26107;DHT22;13866;50.748;12.630;2023-01-19T07:38:16;-3.80;99.90
26107;DHT22;13866;50.748;12.630;2023-01-19T07:40:42;-3.80;99.90
26107;DHT22;13866;50.748;12.630;2023-01-19T07:43:08;-3.70;99.90
26107;DHT22;13866;50.748;12.630;2023-01-19T07:45:34;-3.80;99.90
26107;DHT22;13866;50.748;12.630;2023-01-19T07:48:00;-3.80;99.90
26107;DHT22;13866;50.748;12.630;2023-01-19T07:50:27;-3.70;99.90
26107;DHT22;13866;50.748;12.630;2023-01-19T07:52:54;-3.70;99.90
26107;DHT22;13866;50.748;12.630;2023-01-19T07:55:20;-3.60;99.90
26107;DHT22;13866;50.748;12.630;2023-01-19T07:57:50;-3.60;99.90
26107;DHT22;13866;50.748;12.630;2023-01-19T08:00:19;-3.60;99.90
26107;DHT22;13866;50.748;12.630;2023-01-19T08:02:49;-3.50;99.90
26107;DHT22;13866;50.748;12.630;2023-01-19T08:05:16;-3.50;99.90
26107;DHT22;13866;50.748;12.630;2023-01-19T08:07:42;-3.40;99.90
26107;DHT22;13866;50.748;12.630;2023-01-19T08:10:08;-3.40;99.90
26107;DHT22;13866;50.748;12.630;2023-01-19T08:12:33;-3.40;99.90
26107;DHT22;13866;50.748;12.630;2023-01-19T08:14:59;-3.30;99.90
26107;DHT22;13866;50.748;12.630;2023-01-19T08:17:24;-3.40;99.90
26107;DHT22;13866;50.748;12.630;2023-01-19T08:19:50;-3.30;99.90
26107;DHT22;13866;50.748;12.630;2023-01-19T08:22:15;-3.20;99.90
26107;DHT22;13866;50.748;12.630;2023-01-19T08:24:41;-3.20;99.90
26107;DHT22;13866;50.748;12.630;2023-01-19T08:27:06;-3.20;99.90
26107;DHT22;13866;50.748;12.630;2023-01-19T08:29:34;-3.10;99.90
26107;DHT22;13866;50.748;12.630;2023-01-19T08:31:59;-3.10;99.90
26107;DHT22;13866;50.748;12.630;2023-01-19T08:34:27;-3.10;99.90
26107;DHT22;13866;50.748;12.630;2023-01-19T08:36:54;-3.00;99.90
26107;DHT22;13866;50.748;12.630;2023-01-19T08:39:19;-3.00;99.90
26107;DHT22;13866;50.748;12.630;2023-01-19T08:41:48;-3.00;99.90
26107;DHT22;13866;50.748;12.630;2023-01-19T08:44:14;-2.90;99.90
26107;DHT22;13866;50.748;12.630;2023-01-19T08:46:40;-2.90;99.90
26107;DHT22;13866;50.748;12.630;2023-01-19T08:49:05;-2.80;99.90
26107;DHT22;13866;50.748;12.630;2023-01-19T08:51:31;-2.80;99.90
26107;DHT22;13866;50.748;12.630;2023-01-19T08:53:57;-2.80;99.90
26107;DHT22;13866;50.748;12.630;2023-01-19T08:56:22;-2.80;99.90
26107;DHT22;13866;50.748;12.630;2023-01-19T08:58:48;-2.70;99.90
26107;DHT22;13866;50.748;12.630;2023-01-19T09:01:13;-2.60;99.90
26107;DHT22;13866;50.748;12.630;2023-01-19T09:03:41;-2.60;99.90
26107;DHT22;13866;50.748;12.630;2023-01-19T09:06:07;-2.50;99.90
26107;DHT22;13866;50.748;12.630;2023-01-19T09:08:33;-2.40;99.90
26107;DHT22;13866;50.748;12.630;2023-01-19T09:10:59;-2.30;99.90
26107;DHT22;13866;50.748;12.630;2023-01-19T09:13:24;-2.10;99.90
26107;DHT22;13866;50.748;12.630;2023-01-19T09:15:50;-1.90;99.90
26107;DHT22;13866;50.748;12.630;2023-01-19T09:18:18;-1.70;99.90
26107;DHT22;13866;50.748;12.630;2023-01-19T09:20:46;-1.60;99.90
26107;DHT22;13866;50.748;12.630;2023-01-19T09:23:14;-1.50;99.90
26107;DHT22;13866;50.748;12.630;2023-01-19T09:25:43;-1.40;99.90
26107;DHT22;13866;50.748;12.630;2023-01-19T09:28:10;-1.30;99.90
26107;DHT22;13866;50.748;12.630;2023-01-19T09:30:37;-1.20;99.90
26107;DHT22;13866;50.748;12.630;2023-01-19T09:33:06;-1.00;99.90
26107;DHT22;13866;50.748;12.630;2023-01-19T09:35:35;-0.90;99.90
26107;DHT22;13866;50.748;12.630;2023-01-19T09:38:01;-1.00;99.90
26107;DHT22;13866;50.748;12.630;2023-01-19T09:40:27;-0.80;99.90
26107;DHT22;13866;50.748;12.630;2023-01-19T09:43:11;-0.80;99.90
26107;DHT22;13866;50.748;12.630;2023-01-19T09:45:58;-0.60;99.90
26107;DHT22;13866;50.748;12.630;2023-01-19T09:48:46;-0.60;99.90
26107;DHT22;13866;50.748;12.630;2023-01-19T09:51:39;-0.50;99.90
26107;DHT22;13866;50.748;12.630;2023-01-19T09:54:14;-0.50;99.90
26107;DHT22;13866;50.748;12.630;2023-01-19T09:56:44;-0.50;99.90
26107;DHT22;13866;50.748;12.630;2023-01-19T09:59:18;-0.50;99.90
26107;DHT22;13866;50.748;12.630;2023-01-19T10:04:41;-0.70;99.90
26107;DHT22;13866;50.748;12.630;2023-01-19T10:07:14;-0.70;99.90
26107;DHT22;13866;50.748;12.630;2023-01-19T10:10:18;-0.80;99.90
26107;DHT22;13866;50.748;12.630;2023-01-19T10:18:21;-1.00;99.90
26107;DHT22;13866;50.748;12.630;2023-01-19T10:20:50;-0.90;99.90
26107;DHT22;13866;50.748;12.630;2023-01-19T10:23:28;-0.80;99.90
26107;DHT22;13866;50.748;12.630;2023-01-19T10:25:59;-0.80;99.90
26107;DHT22;13866;50.748;12.630;2023-01-19T10:28:27;-0.80;99.90
26107;DHT22;13866;50.748;12.630;2023-01-19T10:30:54;-0.90;99.90
26107;DHT22;13866;50.748;12.630;2023-01-19T10:33:20;-0.90;99.90
26107;DHT22;13866;50.748;12.630;2023-01-19T10:35:45;-0.80;99.90
26107;DHT22;13866;50.748;12.630;2023-01-19T10:38:14;-0.80;99.90
26107;DHT22;13866;50.748;12.630;2023-01-19T10:40:57;-0.80;99.90
26107;DHT22;13866;50.748;12.630;2023-01-19T10:45:58;-0.70;99.90
26107;DHT22;13866;50.748;12.630;2023-01-19T10:48:23;-0.60;99.90
26107;DHT22;13866;50.748;12.630;2023-01-19T10:51:00;-0.50;99.90
26107;DHT22;13866;50.748;12.630;2023-01-19T10:53:26;-0.40;99.90
26107;DHT22;13866;50.748;12.630;2023-01-19T10:56:13;-0.30;99.90
26107;DHT22;13866;50.748;12.630;2023-01-19T10:58:40;-0.40;99.90
26107;DHT22;13866;50.748;12.630;2023-01-19T11:01:34;-0.40;99.90
26107;DHT22;13866;50.748;12.630;2023-01-19T11:04:20;-0.50;99.90
26107;DHT22;13866;50.748;12.630;2023-01-19T11:06:46;-0.60;99.90
26107;DHT22;13866;50.748;12.630;2023-01-19T11:09:17;-0.60;99.90
26107;DHT22;13866;50.748;12.630;2023-01-19T11:11:49;-0.60;99.90
26107;DHT22;13866;50.748;12.630;2023-01-19T11:14:21;-0.50;99.90
26107;DHT22;13866;50.748;12.630;2023-01-19T11:16:53;-0.50;99.90
26107;DHT22;13866;50.748;12.630;2023-01-19T11:19:26;-0.60;99.90
26107;DHT22;13866;50.748;12.630;2023-01-19T11:22:16;-0.60;99.90
26107;DHT22;13866;50.748;12.630;2023-01-19T11:24:47;-0.50;99.90
26107;DHT22;13866;50.748;12.630;2023-01-19T11:27:18;-0.60;99.90
26107;DHT22;13866;50.748;12.630;2023-01-19T11:30:03;-0.70;99.90
26107;DHT22;13866;50.748;12.630;2023-01-19T11:32:34;-0.60;99.90
26107;DHT22;13866;50.748;12.630;2023-01-19T11:35:27;-0.50;99.90
26107;DHT22;13866;50.748;12.630;2023-01-19T11:38:05;-0.40;99.90
26107;DHT22;13866;50.748;12.630;2023-01-19T11:40:31;-0.50;99.90
26107;DHT22;13866;50.748;12.630;2023-01-19T11:42:57;-0.40;99.90
26107;DHT22;13866;50.748;12.630;2023-01-19T11:45:24;-0.40;99.90
26107;DHT22;13866;50.748;12.630;2023-01-19T11:47:50;-0.40;99.90
26107;DHT22;13866;50.748;12.630;2023-01-19T11:53:00;-0.50;99.90
26107;DHT22;13866;50.748;12.630;2023-01-19T11:55:47;-0.50;99.90
26107;DHT22;13866;50.748;12.630;2023-01-19T11:58:15;-0.40;99.90
26107;DHT22;13866;50.748;12.630;2023-01-19T12:00:45;-0.40;99.90
26107;DHT22;13866;50.748;12.630;2023-01-19T12:05:57;-0.50;99.90
26107;DHT22;13866;50.748;12.630;2023-01-19T12:08:32;-0.60;99.90
26107;DHT22;13866;50.748;12.630;2023-01-19T12:11:00;-0.70;99.90
26107;DHT22;13866;50.748;12.630;2023-01-19T12:13:27;-0.70;99.90
26107;DHT22;13866;50.748;12.630;2023-01-19T12:16:07;-0.60;99.90
26107;DHT22;13866;50.748;12.630;2023-01-19T12:18:47;-0.60;99.90
26107;DHT22;13866;50.748;12.630;2023-01-19T12:21:14;-0.60;99.90
26107;DHT22;13866;50.748;12.630;2023-01-19T12:26:24;-0.70;99.90
26107;DHT22;13866;50.748;12.630;2023-01-19T12:28:53;-0.70;99.90
26107;DHT22;13866;50.748;12.630;2023-01-19T12:31:22;-0.70;99.90
26107;DHT22;13866;50.748;12.630;2023-01-19T12:33:47;-0.80;99.90
26107;DHT22;13866;50.748;12.630;2023-01-19T12:39:23;-0.70;99.90
26107;DHT22;13866;50.748;12.630;2023-01-19T12:42:11;-0.80;99.90
26107;DHT22;13866;50.748;12.630;2023-01-19T12:44:37;-0.80;99.90
26107;DHT22;13866;50.748;12.630;2023-01-19T12:49:44;-0.80;99.90
26107;DHT22;13866;50.748;12.630;2023-01-19T12:52:30;-0.80;99.90
26107;DHT22;13866;50.748;12.630;2023-01-19T12:55:19;-0.70;99.90
26107;DHT22;13866;50.748;12.630;2023-01-19T12:58:13;-0.80;99.90
26107;DHT22;13866;50.748;12.630;2023-01-19T13:00:41;-0.80;99.90
26107;DHT22;13866;50.748;12.630;2023-01-19T13:13:36;-0.60;99.90
26107;DHT22;13866;50.748;12.630;2023-01-19T13:18:54;-0.80;99.90
26107;DHT22;13866;50.748;12.630;2023-01-19T13:21:33;-0.80;99.90
26107;DHT22;13866;50.748;12.630;2023-01-19T13:24:01;-0.70;99.90
26107;DHT22;13866;50.748;12.630;2023-01-19T13:26:30;-0.70;99.90
26107;DHT22;13866;50.748;12.630;2023-01-19T13:29:09;-0.70;99.90
26107;DHT22;13866;50.748;12.630;2023-01-19T13:31:37;-0.70;99.90
26107;DHT22;13866;50.748;12.630;2023-01-19T13:34:13;-0.70;99.90
26107;DHT22;13866;50.748;12.630;2023-01-19T13:36:46;-0.80;99.90
26107;DHT22;13866;50.748;12.630;2023-01-19T13:41:52;-0.70;99.90
26107;DHT22;13866;50.748;12.630;2023-01-19T13:44:22;-0.60;99.90
26107;DHT22;13866;50.748;12.630;2023-01-19T13:46:50;-0.60;99.90
26107;DHT22;13866;50.748;12.630;2023-01-19T13:49:26;-0.70;99.90
26107;DHT22;13866;50.748;12.630;2023-01-19T13:54:29;-0.70;99.90
26107;DHT22;13866;50.748;12.630;2023-01-19T13:56:54;-0.80;99.90
26107;DHT22;13866;50.748;12.630;2023-01-19T13:59:20;-0.70;99.90
26107;DHT22;13866;50.748;12.630;2023-01-19T14:01:46;-0.70;99.90
26107;DHT22;13866;50.748;12.630;2023-01-19T14:04:30;-0.70;99.90
26107;DHT22;13866;50.748;12.630;2023-01-19T14:06:59;-0.70;99.90
26107;DHT22;13866;50.748;12.630;2023-01-19T14:09:25;-0.70;99.90
26107;DHT22;13866;50.748;12.630;2023-01-19T14:12:13;-0.70;99.90
26107;DHT22;13866;50.748;12.630;2023-01-19T14:14:41;-0.60;99.90
26107;DHT22;13866;50.748;12.630;2023-01-19T14:17:25;-0.60;99.90
26107;DHT22;13866;50.748;12.630;2023-01-19T14:19:53;-0.70;99.90
26107;DHT22;13866;50.748;12.630;2023-01-19T14:22:19;-0.70;99.90
26107;DHT22;13866;50.748;12.630;2023-01-19T14:24:44;-0.80;99.90
26107;DHT22;13866;50.748;12.630;2023-01-19T14:27:21;-0.90;99.90
26107;DHT22;13866;50.748;12.630;2023-01-19T14:29:49;-0.90;99.90
26107;DHT22;13866;50.748;12.630;2023-01-19T14:32:22;-0.90;99.90
26107;DHT22;13866;50.748;12.630;2023-01-19T14:35:11;-1.00;99.90
26107;DHT22;13866;50.748;12.630;2023-01-19T14:37:45;-0.90;99.90
26107;DHT22;13866;50.748;12.630;2023-01-19T14:42:43;-1.00;99.90
26107;DHT22;13866;50.748;12.630;2023-01-19T14:45:21;-0.90;99.90
26107;DHT22;13866;50.748;12.630;2023-01-19T14:47:59;-0.90;99.90
26107;DHT22;13866;50.748;12.630;2023-01-19T14:50:31;-0.90;99.90
26107;DHT22;13866;50.748;12.630;2023-01-19T14:53:00;-0.90;99.90
26107;DHT22;13866;50.748;12.630;2023-01-19T14:58:00;-0.90;99.90
26107;DHT22;13866;50.748;12.630;2023-01-19T15:00:26;-0.90;99.90
26107;DHT22;13866;50.748;12.630;2023-01-19T15:02:52;-0.90;99.90
26107;DHT22;13866;50.748;12.630;2023-01-19T15:05:17;-0.90;99.90
26107;DHT22;13866;50.748;12.630;2023-01-19T15:07:44;-0.90;99.90
26107;DHT22;13866;50.748;12.630;2023-01-19T15:10:19;-0.90;99.90
26107;DHT22;13866;50.748;12.630;2023-01-19T15:12:47;-1.00;99.90
26107;DHT22;13866;50.748;12.630;2023-01-19T15:15:19;-1.00;99.90
26107;DHT22;13866;50.748;12.630;2023-01-19T15:17:46;-1.00;99.90
26107;DHT22;13866;50.748;12.630;2023-01-19T15:20:14;-1.10;99.90
26107;DHT22;13866;50.748;12.630;2023-01-19T15:22:40;-1.00;99.90
26107;DHT22;13866;50.748;12.630;2023-01-19T15:25:06;-1.00;99.90
26107;DHT22;13866;50.748;12.630;2023-01-19T15:27:31;-1.00;99.90
26107;DHT22;13866;50.748;12.630;2023-01-19T15:29:57;-1.10;99.90
26107;DHT22;13866;50.748;12.630;2023-01-19T15:32:24;-1.10;99.90
26107;DHT22;13866;50.748;12.630;2023-01-19T15:34:49;-1.10;99.90
26107;DHT22;13866;50.748;12.630;2023-01-19T15:37:15;-1.00;99.90
26107;DHT22;13866;50.748;12.630;2023-01-19T15:39:40;-1.10;99.90
26107;DHT22;13866;50.748;12.630;2023-01-19T15:42:11;-1.00;99.90
26107;DHT22;13866;50.748;12.630;2023-01-19T15:44:38;-1.00;99.90
26107;DHT22;13866;50.748;12.630;2023-01-19T15:47:03;-1.00;99.90
26107;DHT22;13866;50.748;12.630;2023-01-19T15:49:29;-1.00;99.90
26107;DHT22;13866;50.748;12.630;2023-01-19T15:51:55;-1.00;99.90
26107;DHT22;13866;50.748;12.630;2023-01-19T15:54:21;-1.00;99.90
26107;DHT22;13866;50.748;12.630;2023-01-19T15:56:46;-1.10;99.90
26107;DHT22;13866;50.748;12.630;2023-01-19T15:59:12;-1.00;99.90
26107;DHT22;13866;50.748;12.630;2023-01-19T16:01:39;-1.00;99.90
26107;DHT22;13866;50.748;12.630;2023-01-19T16:04:07;-1.10;99.90
26107;DHT22;13866;50.748;12.630;2023-01-19T16:06:33;-1.10;99.90
26107;DHT22;13866;50.748;12.630;2023-01-19T16:08:59;-1.10;99.90
26107;DHT22;13866;50.748;12.630;2023-01-19T16:11:27;-1.20;99.90
26107;DHT22;13866;50.748;12.630;2023-01-19T16:13:53;-1.20;99.90
26107;DHT22;13866;50.748;12.630;2023-01-19T16:16:20;-1.20;99.90
26107;DHT22;13866;50.748;12.630;2023-01-19T16:18:46;-1.20;99.90
26107;DHT22;13866;50.748;12.630;2023-01-19T16:21:12;-1.20;99.90
26107;DHT22;13866;50.748;12.630;2023-01-19T16:23:38;-1.10;99.90
26107;DHT22;13866;50.748;12.630;2023-01-19T16:26:07;-1.20;99.90
26107;DHT22;13866;50.748;12.630;2023-01-19T16:28:36;-1.20;99.90
26107;DHT22;13866;50.748;12.630;2023-01-19T16:31:03;-1.20;99.90